createdAt,value
2017-02-28T00:00:00.393Z,8.47
2017-02-28T00:01:01.632Z,8.37
2017-02-28T00:02:02.864Z,8.42
2017-02-28T00:03:04.109Z,8.4
2017-02-28T00:04:05.343Z,8.39
2017-02-28T00:05:06.585Z,8.4
2017-02-28T00:06:07.826Z,8.36
2017-02-28T00:07:09.067Z,8.32
2017-02-28T00:08:10.391Z,8.33
2017-02-28T00:09:11.631Z,8.29
2017-02-28T00:10:12.870Z,8.32
2017-02-28T00:11:14.104Z,8.25
2017-02-28T00:12:15.340Z,8.28
2017-02-28T00:13:16.576Z,8.33
2017-02-28T00:14:17.813Z,8.28
2017-02-28T00:15:19.136Z,8.29
2017-02-28T00:16:20.377Z,8.26
2017-02-28T00:17:21.606Z,8.22
2017-02-28T00:18:22.873Z,8.17
2017-02-28T00:19:24.121Z,8.14
2017-02-28T00:20:25.389Z,8.18
2017-02-28T00:21:26.608Z,8.21
2017-02-28T00:22:27.916Z,8.18
2017-02-28T00:23:29.156Z,8.22
2017-02-28T00:24:30.421Z,8.18
2017-02-28T00:25:31.655Z,8.2
2017-02-28T00:26:33.013Z,8.15
2017-02-28T00:27:34.267Z,8.14
2017-02-28T00:28:35.525Z,8.15
2017-02-28T00:29:36.785Z,8.15
2017-02-28T00:30:38.019Z,8.14
2017-02-28T00:31:39.271Z,8.12
2017-02-28T00:32:40.502Z,8.18
2017-02-28T00:33:41.772Z,8.18
2017-02-28T00:34:42.989Z,8.18
2017-02-28T00:35:44.243Z,8.14
2017-02-28T00:36:45.475Z,8.14
2017-02-28T00:37:46.713Z,8.11
2017-02-28T00:38:47.956Z,8.07
2017-02-28T00:39:49.235Z,8.21
2017-02-28T00:40:50.467Z,8.2
2017-02-28T00:41:51.693Z,8.1
2017-02-28T00:42:52.966Z,8.15
2017-02-28T00:43:54.181Z,8.14
2017-02-28T00:44:55.411Z,8.08
2017-02-28T00:45:56.701Z,8.07
2017-02-28T00:46:58.009Z,7.97
2017-02-28T00:47:59.222Z,7.82
2017-02-28T00:49:00.455Z,7.84
2017-02-28T00:50:01.725Z,7.82
2017-02-28T00:51:02.993Z,7.72
2017-02-28T00:52:04.249Z,7.59
2017-02-28T00:53:05.495Z,7.58
2017-02-28T00:54:06.774Z,7.66
2017-02-28T00:55:08.010Z,7.59
2017-02-28T00:56:09.224Z,7.58
2017-02-28T00:57:10.625Z,7.53
2017-02-28T00:58:11.918Z,7.53
2017-02-28T00:59:13.172Z,7.55
2017-02-28T01:00:14.454Z,7.47
2017-02-28T01:01:15.707Z,7.42
2017-02-28T01:02:16.930Z,7.47
2017-02-28T01:03:18.172Z,7.34
2017-02-28T01:04:19.403Z,7.37
2017-02-28T01:05:20.648Z,7.34
2017-02-28T01:06:21.894Z,7.19
2017-02-28T01:07:23.123Z,7.23
2017-02-28T01:08:24.340Z,7.2
2017-02-28T01:09:25.593Z,7.22
2017-02-28T01:10:26.852Z,7.2
2017-02-28T01:11:28.105Z,7.22
2017-02-28T01:12:29.352Z,7.26
2017-02-28T01:13:30.594Z,7.19
2017-02-28T01:14:31.840Z,7.24
2017-02-28T01:15:33.068Z,7.15
2017-02-28T01:16:34.324Z,7.16
2017-02-28T01:17:35.547Z,7.2
2017-02-28T01:18:36.793Z,7.2
2017-02-28T01:19:38.025Z,7.2
2017-02-28T01:20:39.282Z,7.17
2017-02-28T01:21:40.518Z,7.16
2017-02-28T01:22:41.742Z,7.09
2017-02-28T01:23:42.990Z,7.07
2017-02-28T01:24:44.247Z,7.01
2017-02-28T01:25:45.515Z,7.09
2017-02-28T01:26:46.764Z,6.95
2017-02-28T01:27:48.015Z,7.04
2017-02-28T01:28:49.243Z,6.9
2017-02-28T01:29:50.598Z,6.91
2017-02-28T01:30:51.808Z,6.94
2017-02-28T01:31:53.042Z,6.95
2017-02-28T01:32:54.311Z,6.97
2017-02-28T01:33:55.532Z,6.84
2017-02-28T01:34:56.762Z,6.9
2017-02-28T01:35:58.015Z,6.84
2017-02-28T01:36:59.239Z,6.8
2017-02-28T01:38:00.627Z,6.84
2017-02-28T01:39:01.831Z,6.94
2017-02-28T01:40:03.129Z,6.95
2017-02-28T01:41:04.366Z,6.99
2017-02-28T01:42:05.597Z,6.97
2017-02-28T01:43:06.844Z,6.97
2017-02-28T01:44:08.119Z,7.01
2017-02-28T01:45:09.436Z,6.97
2017-02-28T01:46:10.678Z,6.99
2017-02-28T01:47:11.907Z,6.99
2017-02-28T01:48:13.138Z,6.99
2017-02-28T01:49:14.443Z,6.94
2017-02-28T01:50:15.660Z,6.91
2017-02-28T01:51:16.885Z,6.83
2017-02-28T01:52:18.160Z,6.77
2017-02-28T01:53:19.407Z,6.77
2017-02-28T01:54:20.679Z,6.69
2017-02-28T01:55:21.902Z,6.61
2017-02-28T01:56:23.141Z,6.61
2017-02-28T01:57:24.377Z,6.56
2017-02-28T01:58:25.727Z,6.5
2017-02-28T01:59:26.979Z,6.43
2017-02-28T02:00:28.205Z,6.54
2017-02-28T02:01:29.445Z,6.54
2017-02-28T02:02:30.683Z,6.46
2017-02-28T02:03:31.912Z,6.46
2017-02-28T02:04:33.149Z,6.51
2017-02-28T02:05:34.424Z,6.44
2017-02-28T02:06:35.688Z,6.47
2017-02-28T02:07:36.906Z,6.33
2017-02-28T02:08:38.148Z,6.44
2017-02-28T02:09:39.374Z,6.33
2017-02-28T02:10:40.654Z,6.4
2017-02-28T02:11:41.884Z,6.32
2017-02-28T02:12:43.119Z,6.3
2017-02-28T02:13:44.356Z,6.33
2017-02-28T02:14:45.602Z,6.33
2017-02-28T02:15:46.835Z,6.33
2017-02-28T02:16:48.273Z,6.38
2017-02-28T02:17:49.517Z,6.32
2017-02-28T02:18:50.792Z,6.33
2017-02-28T02:19:52.043Z,6.35
2017-02-28T02:20:53.217Z,6.48
2017-02-28T02:21:54.494Z,6.44
2017-02-28T02:22:55.712Z,6.44
2017-02-28T02:23:56.945Z,6.58
2017-02-28T02:24:58.288Z,6.51
2017-02-28T02:25:59.526Z,6.46
2017-02-28T02:27:00.786Z,6.44
2017-02-28T02:28:02.021Z,6.47
2017-02-28T02:29:03.259Z,6.47
2017-02-28T02:30:04.631Z,6.53
2017-02-28T02:31:05.818Z,6.46
2017-02-28T02:32:07.091Z,6.44
2017-02-28T02:33:08.344Z,6.35
2017-02-28T02:34:09.568Z,6.38
2017-02-28T02:35:10.797Z,6.3
2017-02-28T02:36:12.042Z,6.28
2017-02-28T02:37:13.295Z,6.22
2017-02-28T02:38:14.590Z,6.25
2017-02-28T02:39:15.915Z,6.16
2017-02-28T02:40:17.158Z,6.11
2017-02-28T02:41:18.451Z,6.14
2017-02-28T02:42:19.693Z,6.03
2017-02-28T02:43:20.934Z,6.09
2017-02-28T02:44:22.264Z,6.14
2017-02-28T02:45:23.519Z,6.19
2017-02-28T02:46:24.802Z,6.06
2017-02-28T02:47:26.051Z,6.1
2017-02-28T02:48:27.294Z,6.07
2017-02-28T02:49:28.537Z,6.06
2017-02-28T02:50:29.760Z,6.06
2017-02-28T02:51:31.115Z,6.07
2017-02-28T02:52:32.363Z,6.09
2017-02-28T02:53:33.622Z,6.07
2017-02-28T02:54:34.835Z,6
2017-02-28T02:55:36.075Z,5.95
2017-02-28T02:56:37.295Z,5.88
2017-02-28T02:57:38.542Z,5.82
2017-02-28T02:58:39.901Z,5.86
2017-02-28T02:59:41.113Z,5.81
2017-02-28T03:00:42.419Z,5.77
2017-02-28T03:01:43.648Z,5.73
2017-02-28T03:02:44.933Z,5.68
2017-02-28T03:03:46.150Z,5.59
2017-02-28T03:04:47.373Z,5.53
2017-02-28T03:05:48.606Z,5.55
2017-02-28T03:06:49.859Z,5.49
2017-02-28T03:07:51.081Z,5.41
2017-02-28T03:08:52.329Z,5.37
2017-02-28T03:09:53.589Z,5.43
2017-02-28T03:10:54.803Z,5.31
2017-02-28T03:11:56.029Z,5.31
2017-02-28T03:12:57.272Z,5.3
2017-02-28T03:13:58.506Z,5.25
2017-02-28T03:14:59.738Z,5.28
2017-02-28T03:16:00.978Z,5.19
2017-02-28T03:17:02.355Z,5.32
2017-02-28T03:18:03.601Z,5.32
2017-02-28T03:19:04.844Z,5.17
2017-02-28T03:20:06.075Z,5.23
2017-02-28T03:21:07.385Z,5.1
2017-02-28T03:22:08.625Z,5.12
2017-02-28T03:23:09.852Z,5.14
2017-02-28T03:24:11.111Z,5.16
2017-02-28T03:25:12.368Z,5.09
2017-02-28T03:26:13.585Z,5.16
2017-02-28T03:27:14.824Z,5.17
2017-02-28T03:28:16.075Z,5.1
2017-02-28T03:29:17.441Z,5.14
2017-02-28T03:30:18.676Z,5.09
2017-02-28T03:31:19.911Z,5.09
2017-02-28T03:32:21.140Z,5.02
2017-02-28T03:33:22.383Z,5.01
2017-02-28T03:34:23.619Z,5.12
2017-02-28T03:35:24.854Z,5.13
2017-02-28T03:36:26.128Z,5.12
2017-02-28T03:37:27.351Z,5.14
2017-02-28T03:38:28.590Z,5.16
2017-02-28T03:39:29.815Z,5.17
2017-02-28T03:40:31.068Z,5.2
2017-02-28T03:41:32.300Z,5.17
2017-02-28T03:42:33.532Z,5.12
2017-02-28T03:43:34.772Z,5.09
2017-02-28T03:44:36.055Z,5.07
2017-02-28T03:45:37.278Z,5.05
2017-02-28T03:46:38.529Z,5.1
2017-02-28T03:47:39.778Z,5.04
2017-02-28T03:48:41.047Z,5.01
2017-02-28T03:49:42.303Z,4.99
2017-02-28T03:50:43.519Z,4.96
2017-02-28T03:51:44.768Z,4.94
2017-02-28T03:52:45.988Z,4.88
2017-02-28T03:53:47.239Z,4.83
2017-02-28T03:54:48.555Z,4.88
2017-02-28T03:55:49.774Z,4.86
2017-02-28T03:56:51.061Z,4.88
2017-02-28T03:57:52.280Z,4.91
2017-02-28T03:58:53.499Z,4.88
2017-02-28T03:59:54.821Z,4.8
2017-02-28T04:00:56.190Z,4.79
2017-02-28T04:01:57.425Z,4.75
2017-02-28T04:02:58.697Z,4.8
2017-02-28T04:03:59.955Z,4.8
2017-02-28T04:05:01.192Z,4.83
2017-02-28T04:06:02.493Z,4.88
2017-02-28T04:07:03.701Z,4.91
2017-02-28T04:08:04.935Z,4.95
2017-02-28T04:09:06.196Z,4.98
2017-02-28T04:10:07.427Z,4.96
2017-02-28T04:11:08.668Z,4.89
2017-02-28T04:12:09.914Z,4.95
2017-02-28T04:13:11.177Z,4.95
2017-02-28T04:14:12.563Z,4.91
2017-02-28T04:15:13.779Z,4.84
2017-02-28T04:16:15.010Z,4.88
2017-02-28T04:17:16.246Z,4.95
2017-02-28T04:18:17.488Z,4.86
2017-02-28T04:19:18.729Z,4.95
2017-02-28T04:20:20.016Z,4.89
2017-02-28T04:21:21.233Z,4.89
2017-02-28T04:22:22.487Z,4.84
2017-02-28T04:23:23.743Z,4.83
2017-02-28T04:24:24.968Z,4.83
2017-02-28T04:25:26.208Z,4.91
2017-02-28T04:26:27.565Z,4.83
2017-02-28T04:27:28.877Z,4.77
2017-02-28T04:28:30.111Z,4.89
2017-02-28T04:29:31.339Z,4.86
2017-02-28T04:30:32.568Z,4.83
2017-02-28T04:31:33.795Z,4.79
2017-02-28T04:32:35.113Z,4.77
2017-02-28T04:33:36.675Z,4.84
2017-02-28T04:34:37.922Z,4.79
2017-02-28T04:35:39.163Z,4.83
2017-02-28T04:36:40.440Z,4.89
2017-02-28T04:37:41.700Z,4.89
2017-02-28T04:38:43.007Z,4.83
2017-02-28T04:39:44.215Z,4.73
2017-02-28T04:40:45.427Z,4.77
2017-02-28T04:41:46.675Z,4.89
2017-02-28T04:42:47.896Z,4.94
2017-02-28T04:43:49.156Z,5.04
2017-02-28T04:44:50.398Z,5.1
2017-02-28T04:45:51.633Z,5.1
2017-02-28T04:46:52.866Z,5.13
2017-02-28T04:47:54.107Z,5.19
2017-02-28T04:48:55.323Z,5.16
2017-02-28T04:49:56.563Z,5.13
2017-02-28T04:50:57.791Z,5.14
2017-02-28T04:51:59.060Z,5.17
2017-02-28T04:53:00.378Z,5.25
2017-02-28T04:54:01.599Z,5.23
2017-02-28T04:55:02.843Z,5.32
2017-02-28T04:56:04.076Z,5.34
2017-02-28T04:57:05.317Z,5.34
2017-02-28T04:58:06.543Z,5.34
2017-02-28T04:59:07.824Z,5.5
2017-02-28T05:00:09.073Z,5.46
2017-02-28T05:01:10.333Z,5.37
2017-02-28T05:02:11.549Z,5.43
2017-02-28T05:03:12.845Z,5.52
2017-02-28T05:04:14.080Z,5.49
2017-02-28T05:05:15.334Z,5.55
2017-02-28T05:06:16.565Z,5.57
2017-02-28T05:07:17.948Z,5.55
2017-02-28T05:08:19.086Z,5.63
2017-02-28T05:09:20.317Z,5.63
2017-02-28T05:10:21.548Z,5.67
2017-02-28T05:11:22.785Z,5.67
2017-02-28T05:12:24.013Z,5.67
2017-02-28T05:13:25.254Z,5.6
2017-02-28T05:14:26.501Z,5.64
2017-02-28T05:15:27.749Z,5.77
2017-02-28T05:16:28.982Z,5.74
2017-02-28T05:17:30.217Z,5.71
2017-02-28T05:18:31.443Z,5.78
2017-02-28T05:19:32.775Z,5.81
2017-02-28T05:20:34.027Z,5.73
2017-02-28T05:21:35.254Z,5.78
2017-02-28T05:22:36.591Z,5.91
2017-02-28T05:23:37.829Z,5.78
2017-02-28T05:24:39.074Z,5.85
2017-02-28T05:25:40.463Z,5.77
2017-02-28T05:26:41.694Z,5.82
2017-02-28T05:27:42.971Z,5.74
2017-02-28T05:28:44.164Z,5.67
2017-02-28T05:29:45.499Z,5.75
2017-02-28T05:30:46.778Z,5.6
2017-02-28T05:31:48.024Z,5.56
2017-02-28T05:32:49.281Z,5.56
2017-02-28T05:33:50.499Z,5.52
2017-02-28T05:34:51.730Z,5.5
2017-02-28T05:35:53.015Z,5.48
2017-02-28T05:36:54.344Z,5.5
2017-02-28T05:37:55.577Z,5.5
2017-02-28T05:38:56.804Z,5.46
2017-02-28T05:39:58.025Z,5.52
2017-02-28T05:40:59.260Z,5.53
2017-02-28T05:42:00.516Z,5.52
2017-02-28T05:43:01.752Z,5.49
2017-02-28T05:44:02.981Z,5.59
2017-02-28T05:45:04.240Z,5.52
2017-02-28T05:46:05.451Z,5.59
2017-02-28T05:47:06.709Z,5.68
2017-02-28T05:48:07.919Z,5.66
2017-02-28T05:49:09.163Z,5.74
2017-02-28T05:50:10.413Z,5.73
2017-02-28T05:51:11.773Z,5.71
2017-02-28T05:52:13.053Z,5.73
2017-02-28T05:53:14.276Z,5.75
2017-02-28T05:54:15.511Z,5.81
2017-02-28T05:55:16.836Z,5.78
2017-02-28T05:56:18.180Z,5.86
2017-02-28T05:57:19.520Z,5.77
2017-02-28T05:58:20.802Z,5.74
2017-02-28T05:59:22.038Z,5.75
2017-02-28T06:00:23.281Z,5.78
2017-02-28T06:01:24.524Z,5.78
2017-02-28T06:02:25.816Z,5.75
2017-02-28T06:03:27.090Z,5.81
2017-02-28T06:04:28.325Z,5.81
2017-02-28T06:05:29.552Z,5.88
2017-02-28T06:06:30.824Z,5.78
2017-02-28T06:07:32.059Z,5.78
2017-02-28T06:08:33.362Z,5.88
2017-02-28T06:09:34.661Z,5.83
2017-02-28T06:10:35.899Z,5.89
2017-02-28T06:11:37.129Z,5.85
2017-02-28T06:12:38.363Z,5.92
2017-02-28T06:13:39.589Z,5.92
2017-02-28T06:14:40.827Z,5.93
2017-02-28T06:15:42.083Z,5.96
2017-02-28T06:16:43.316Z,6.06
2017-02-28T06:17:44.553Z,6.01
2017-02-28T06:18:45.819Z,5.95
2017-02-28T06:19:47.162Z,6
2017-02-28T06:20:48.380Z,6.01
2017-02-28T06:21:49.644Z,5.98
2017-02-28T06:22:50.998Z,6.03
2017-02-28T06:23:52.234Z,6.04
2017-02-28T06:24:53.464Z,6.06
2017-02-28T06:25:54.778Z,6.09
2017-02-28T06:26:56.015Z,6.06
2017-02-28T06:27:57.322Z,6.1
2017-02-28T06:28:58.664Z,6.01
2017-02-28T06:29:59.903Z,6.07
2017-02-28T06:31:01.130Z,6.07
2017-02-28T06:32:02.390Z,6.07
2017-02-28T06:33:03.628Z,6.14
2017-02-28T06:34:04.915Z,6.07
2017-02-28T06:35:06.098Z,6.11
2017-02-28T06:36:07.349Z,6.22
2017-02-28T06:37:08.598Z,6.22
2017-02-28T06:38:09.805Z,6.26
2017-02-28T06:39:11.038Z,6.22
2017-02-28T06:40:12.326Z,6.26
2017-02-28T06:41:13.578Z,6.26
2017-02-28T06:42:14.853Z,6.25
2017-02-28T06:43:16.134Z,6.28
2017-02-28T06:44:17.373Z,6.28
2017-02-28T06:45:18.618Z,6.32
2017-02-28T06:46:19.851Z,6.21
2017-02-28T06:47:21.213Z,6.25
2017-02-28T06:48:22.479Z,6.26
2017-02-28T06:49:23.738Z,6.25
2017-02-28T06:50:25.075Z,6.3
2017-02-28T06:51:26.316Z,6.28
2017-02-28T06:52:27.582Z,6.35
2017-02-28T06:53:28.866Z,6.38
2017-02-28T06:54:30.083Z,6.4
2017-02-28T06:55:31.333Z,6.41
2017-02-28T06:56:32.584Z,6.41
2017-02-28T06:57:33.806Z,6.36
2017-02-28T06:58:35.088Z,6.43
2017-02-28T06:59:36.329Z,6.47
2017-02-28T07:00:37.582Z,6.47
2017-02-28T07:01:38.819Z,6.47
2017-02-28T07:02:40.048Z,6.44
2017-02-28T07:03:41.285Z,6.46
2017-02-28T07:04:42.592Z,6.48
2017-02-28T07:05:43.848Z,6.51
2017-02-28T07:06:45.094Z,6.47
2017-02-28T07:07:46.383Z,6.4
2017-02-28T07:08:47.616Z,6.4
2017-02-28T07:09:48.852Z,6.47
2017-02-28T07:10:50.091Z,6.48
2017-02-28T07:11:51.399Z,6.54
2017-02-28T07:12:52.633Z,6.51
2017-02-28T07:13:53.863Z,6.44
2017-02-28T07:14:55.116Z,6.47
2017-02-28T07:15:56.344Z,6.41
2017-02-28T07:16:57.572Z,6.44
2017-02-28T07:17:58.825Z,6.53
2017-02-28T07:19:00.204Z,6.5
2017-02-28T07:20:01.478Z,6.47
2017-02-28T07:21:02.719Z,6.41
2017-02-28T07:22:03.957Z,6.46
2017-02-28T07:23:05.206Z,6.43
2017-02-28T07:24:06.425Z,6.5
2017-02-28T07:25:07.663Z,6.58
2017-02-28T07:26:08.930Z,6.56
2017-02-28T07:27:10.243Z,6.53
2017-02-28T07:28:11.473Z,6.5
2017-02-28T07:29:12.691Z,6.5
2017-02-28T07:30:13.916Z,6.48
2017-02-28T07:31:15.178Z,6.47
2017-02-28T07:32:16.432Z,6.38
2017-02-28T07:33:17.685Z,6.5
2017-02-28T07:34:19.002Z,6.35
2017-02-28T07:35:20.225Z,6.35
2017-02-28T07:36:21.455Z,6.41
2017-02-28T07:37:22.711Z,6.44
2017-02-28T07:38:23.922Z,6.5
2017-02-28T07:39:25.162Z,6.38
2017-02-28T07:40:26.402Z,6.33
2017-02-28T07:41:27.647Z,6.4
2017-02-28T07:42:28.905Z,6.43
2017-02-28T07:43:30.155Z,6.5
2017-02-28T07:44:31.399Z,6.54
2017-02-28T07:45:32.758Z,6.58
2017-02-28T07:46:33.878Z,6.65
2017-02-28T07:47:35.143Z,6.68
2017-02-28T07:48:36.379Z,6.71
2017-02-28T07:49:37.624Z,6.86
2017-02-28T07:50:38.883Z,6.94
2017-02-28T07:51:40.147Z,6.98
2017-02-28T07:52:41.471Z,7.09
2017-02-28T07:53:42.759Z,7.15
2017-02-28T07:54:44.026Z,7.02
2017-02-28T07:55:45.262Z,7.04
2017-02-28T07:56:46.516Z,7.08
2017-02-28T07:57:47.795Z,6.91
2017-02-28T07:58:49.004Z,7.07
2017-02-28T07:59:50.323Z,7.04
2017-02-28T08:00:51.450Z,6.94
2017-02-28T08:01:52.679Z,6.97
2017-02-28T08:02:53.911Z,6.99
2017-02-28T08:03:55.149Z,6.99
2017-02-28T08:04:56.495Z,6.99
2017-02-28T08:05:57.807Z,7.07
2017-02-28T08:06:59.084Z,6.89
2017-02-28T08:08:00.336Z,7.04
2017-02-28T08:09:01.579Z,7.02
2017-02-28T08:10:02.826Z,7.04
2017-02-28T08:11:04.055Z,6.9
2017-02-28T08:12:05.298Z,6.95
2017-02-28T08:13:06.521Z,7.01
2017-02-28T08:14:07.777Z,7.04
2017-02-28T08:15:09.071Z,7.02
2017-02-28T08:16:10.318Z,7.07
2017-02-28T08:17:11.557Z,7.16
2017-02-28T08:18:12.854Z,7.22
2017-02-28T08:19:14.102Z,7.23
2017-02-28T08:20:15.342Z,7.34
2017-02-28T08:21:16.563Z,7.31
2017-02-28T08:22:17.853Z,7.4
2017-02-28T08:23:19.070Z,7.37
2017-02-28T08:24:20.361Z,7.44
2017-02-28T08:25:21.612Z,7.38
2017-02-28T08:26:22.905Z,7.34
2017-02-28T08:27:24.158Z,7.44
2017-02-28T08:28:25.446Z,7.34
2017-02-28T08:29:26.910Z,7.38
2017-02-28T08:30:28.176Z,7.42
2017-02-28T08:31:29.412Z,7.37
2017-02-28T08:32:30.654Z,7.34
2017-02-28T08:33:31.874Z,7.45
2017-02-28T08:34:33.121Z,7.38
2017-02-28T08:35:34.381Z,7.35
2017-02-28T08:36:35.650Z,7.35
2017-02-28T08:37:36.889Z,7.4
2017-02-28T08:38:38.120Z,7.38
2017-02-28T08:39:39.361Z,7.32
2017-02-28T08:40:40.697Z,7.23
2017-02-28T08:41:41.933Z,7.22
2017-02-28T08:42:43.183Z,7.09
2017-02-28T08:43:44.423Z,7.16
2017-02-28T08:44:45.654Z,7.07
2017-02-28T08:45:46.893Z,7.05
2017-02-28T08:46:48.125Z,7.07
2017-02-28T08:47:49.359Z,7.01
2017-02-28T08:48:50.599Z,6.97
2017-02-28T08:49:51.864Z,6.94
2017-02-28T08:50:53.103Z,6.84
2017-02-28T08:51:54.328Z,6.87
2017-02-28T08:52:55.574Z,6.9
2017-02-28T08:53:56.837Z,6.84
2017-02-28T08:54:58.066Z,6.86
2017-02-28T08:55:59.308Z,6.84
2017-02-28T08:57:00.587Z,6.86
2017-02-28T08:58:01.860Z,6.86
2017-02-28T08:59:03.081Z,6.83
2017-02-28T09:00:04.307Z,6.87
2017-02-28T09:01:05.589Z,6.83
2017-02-28T09:02:06.838Z,6.87
2017-02-28T09:03:08.070Z,6.87
2017-02-28T09:04:09.396Z,6.86
2017-02-28T09:05:10.629Z,6.86
2017-02-28T09:06:11.897Z,6.79
2017-02-28T09:07:13.250Z,6.87
2017-02-28T09:08:14.522Z,6.91
2017-02-28T09:09:15.784Z,6.94
2017-02-28T09:10:17.106Z,6.87
2017-02-28T09:11:18.342Z,6.8
2017-02-28T09:12:19.580Z,6.86
2017-02-28T09:13:20.895Z,6.86
2017-02-28T09:14:22.221Z,6.86
2017-02-28T09:15:23.567Z,6.87
2017-02-28T09:16:24.799Z,6.83
2017-02-28T09:17:26.028Z,6.83
2017-02-28T09:18:27.307Z,6.84
2017-02-28T09:19:28.538Z,6.83
2017-02-28T09:20:29.857Z,6.86
2017-02-28T09:21:31.105Z,6.91
2017-02-28T09:22:32.332Z,6.95
2017-02-28T09:23:33.560Z,7.02
2017-02-28T09:24:34.799Z,7.05
2017-02-28T09:25:36.033Z,7.08
2017-02-28T09:26:37.269Z,7.08
2017-02-28T09:27:38.614Z,7.16
2017-02-28T09:28:39.840Z,7.15
2017-02-28T09:29:41.093Z,7.23
2017-02-28T09:30:42.315Z,7.4
2017-02-28T09:31:43.572Z,7.47
2017-02-28T09:32:44.819Z,7.74
2017-02-28T09:33:46.074Z,8.21
2017-02-28T09:34:47.366Z,8.47
2017-02-28T09:35:48.613Z,8.75
2017-02-28T09:36:49.811Z,8.96
2017-02-28T09:37:51.056Z,9.23
2017-02-28T09:38:52.310Z,9.27
2017-02-28T09:39:53.550Z,9.15
2017-02-28T09:40:54.801Z,9.12
2017-02-28T09:41:56.038Z,8.96
2017-02-28T09:42:57.281Z,8.91
2017-02-28T09:43:58.520Z,8.93
2017-02-28T09:44:59.779Z,8.91
2017-02-28T09:46:01.008Z,8.91
2017-02-28T09:47:02.257Z,8.88
2017-02-28T09:48:03.506Z,8.97
2017-02-28T09:49:04.762Z,9.09
2017-02-28T09:50:05.991Z,9.18
2017-02-28T09:51:07.213Z,9.25
2017-02-28T09:52:08.480Z,9.38
2017-02-28T09:53:09.712Z,9.56
2017-02-28T09:54:10.950Z,10.1
2017-02-28T09:55:12.205Z,10.62
2017-02-28T09:56:13.446Z,11.14
2017-02-28T09:57:14.704Z,11.43
2017-02-28T09:58:15.923Z,11.62
2017-02-28T09:59:17.165Z,11.97
2017-02-28T10:00:18.419Z,11.8
2017-02-28T10:01:19.663Z,11.56
2017-02-28T10:02:20.971Z,11.39
2017-02-28T10:03:22.193Z,11.13
2017-02-28T10:04:23.419Z,11.02
2017-02-28T10:05:24.695Z,10.73
2017-02-28T10:06:25.944Z,10.42
2017-02-28T10:07:27.239Z,10.09
2017-02-28T10:08:28.486Z,10.1
2017-02-28T10:09:29.718Z,10.03
2017-02-28T10:10:30.996Z,9.93
2017-02-28T10:11:32.245Z,9.66
2017-02-28T10:12:33.480Z,9.49
2017-02-28T10:13:34.773Z,9.24
2017-02-28T10:14:36.051Z,9.23
2017-02-28T10:15:37.283Z,9.06
2017-02-28T10:16:38.525Z,9.04
2017-02-28T10:17:39.759Z,9.06
2017-02-28T10:18:41.007Z,8.9
2017-02-28T10:19:42.255Z,8.87
2017-02-28T10:20:43.492Z,8.87
2017-02-28T10:21:44.736Z,8.91
2017-02-28T10:22:45.972Z,8.88
2017-02-28T10:23:47.250Z,8.88
2017-02-28T10:24:48.486Z,8.93
2017-02-28T10:25:49.746Z,8.87
2017-02-28T10:26:51.082Z,8.84
2017-02-28T10:27:52.376Z,8.81
2017-02-28T10:28:53.632Z,8.84
2017-02-28T10:29:55.154Z,8.83
2017-02-28T10:30:56.439Z,8.94
2017-02-28T10:31:57.787Z,8.83
2017-02-28T10:32:59.098Z,8.84
2017-02-28T10:34:00.334Z,8.75
2017-02-28T10:35:01.568Z,8.79
2017-02-28T10:36:02.811Z,8.78
2017-02-28T10:37:04.056Z,8.78
2017-02-28T10:38:05.294Z,8.83
2017-02-28T10:39:06.533Z,8.86
2017-02-28T10:40:07.790Z,8.76
2017-02-28T10:41:09.027Z,8.78
2017-02-28T10:42:10.290Z,8.88
2017-02-28T10:43:11.541Z,8.93
2017-02-28T10:44:12.921Z,9.01
2017-02-28T10:45:14.141Z,9.21
2017-02-28T10:46:15.390Z,9.3
2017-02-28T10:47:16.645Z,9.42
2017-02-28T10:48:17.893Z,9.42
2017-02-28T10:49:19.213Z,9.39
2017-02-28T10:50:20.454Z,9.38
2017-02-28T10:51:21.707Z,9.39
2017-02-28T10:52:22.950Z,9.32
2017-02-28T10:53:24.185Z,9.34
2017-02-28T10:54:25.538Z,9.31
2017-02-28T10:55:26.769Z,9.39
2017-02-28T10:56:28.072Z,9.43
2017-02-28T10:57:29.363Z,9.45
2017-02-28T10:58:30.604Z,9.4
2017-02-28T10:59:31.846Z,9.46
2017-02-28T11:00:33.089Z,9.42
2017-02-28T11:01:34.330Z,9.45
2017-02-28T11:02:35.583Z,9.3
2017-02-28T11:03:36.852Z,9.23
2017-02-28T11:04:38.212Z,9.24
2017-02-28T11:05:39.343Z,9.27
2017-02-28T11:06:40.579Z,9.28
2017-02-28T11:07:41.827Z,9.31
2017-02-28T11:08:43.059Z,9.39
2017-02-28T11:09:44.318Z,9.48
2017-02-28T11:10:45.548Z,9.57
2017-02-28T11:11:46.782Z,9.64
2017-02-28T11:12:48.010Z,9.76
2017-02-28T11:13:49.246Z,9.83
2017-02-28T11:14:50.575Z,9.83
2017-02-28T11:15:51.891Z,9.88
2017-02-28T11:16:53.138Z,9.97
2017-02-28T11:17:54.374Z,9.94
2017-02-28T11:18:55.612Z,10.07
2017-02-28T11:19:56.904Z,10.12
2017-02-28T11:20:58.200Z,10.17
2017-02-28T11:21:59.463Z,10.18
2017-02-28T11:23:00.701Z,10.19
2017-02-28T11:24:01.933Z,10.1
2017-02-28T11:25:03.162Z,9.94
2017-02-28T11:26:04.394Z,9.85
2017-02-28T11:27:05.660Z,9.82
2017-02-28T11:28:07.051Z,9.7
2017-02-28T11:29:08.184Z,9.71
2017-02-28T11:30:09.522Z,9.63
2017-02-28T11:31:10.761Z,9.5
2017-02-28T11:32:12.002Z,9.39
2017-02-28T11:33:13.400Z,9.38
2017-02-28T11:34:14.671Z,9.39
2017-02-28T11:35:15.941Z,9.35
2017-02-28T11:36:17.233Z,9.43
2017-02-28T11:37:18.482Z,9.3
2017-02-28T11:38:19.742Z,9.35
2017-02-28T11:39:21.001Z,9.3
2017-02-28T11:40:22.236Z,9.27
2017-02-28T11:41:23.491Z,9.16
2017-02-28T11:42:24.726Z,9.09
2017-02-28T11:43:25.984Z,8.91
2017-02-28T11:44:27.216Z,8.94
2017-02-28T11:45:28.472Z,8.83
2017-02-28T11:46:29.796Z,8.78
2017-02-28T11:47:31.023Z,8.87
2017-02-28T11:48:32.280Z,8.96
2017-02-28T11:49:33.501Z,9.16
2017-02-28T11:50:34.751Z,9.2
2017-02-28T11:51:36.011Z,9.27
2017-02-28T11:52:37.254Z,9.24
2017-02-28T11:53:38.543Z,9.25
2017-02-28T11:54:39.829Z,9.3
2017-02-28T11:55:41.190Z,9.27
2017-02-28T11:56:42.422Z,9.3
2017-02-28T11:57:43.671Z,9.38
2017-02-28T11:58:44.914Z,9.38
2017-02-28T11:59:46.186Z,9.46
2017-02-28T12:00:47.439Z,9.52
2017-02-28T12:01:48.679Z,9.57
2017-02-28T12:02:49.916Z,9.81
2017-02-28T12:03:51.164Z,9.79
2017-02-28T12:04:52.411Z,10
2017-02-28T12:05:53.752Z,10.09
2017-02-28T12:06:54.953Z,10.22
2017-02-28T12:07:56.375Z,10.33
2017-02-28T12:08:57.512Z,10.42
2017-02-28T12:09:58.756Z,10.53
2017-02-28T12:11:00.002Z,10.6
2017-02-28T12:12:01.268Z,10.62
2017-02-28T12:13:02.513Z,10.74
2017-02-28T12:14:03.846Z,10.71
2017-02-28T12:15:05.204Z,10.68
2017-02-28T12:16:06.442Z,10.6
2017-02-28T12:17:07.724Z,10.44
2017-02-28T12:18:09.044Z,10.44
2017-02-28T12:19:10.287Z,10.55
2017-02-28T12:20:11.545Z,10.52
2017-02-28T12:21:12.845Z,10.52
2017-02-28T12:22:14.082Z,10.42
2017-02-28T12:23:15.332Z,10.4
2017-02-28T12:24:16.673Z,10.42
2017-02-28T12:25:17.912Z,10.43
2017-02-28T12:26:19.295Z,10.52
2017-02-28T12:27:20.537Z,10.58
2017-02-28T12:28:21.755Z,10.47
2017-02-28T12:29:22.994Z,10.43
2017-02-28T12:30:24.274Z,10.43
2017-02-28T12:31:25.545Z,10.39
2017-02-28T12:32:26.809Z,10.25
2017-02-28T12:33:28.042Z,10.18
2017-02-28T12:34:29.301Z,10.18
2017-02-28T12:35:30.628Z,10.25
2017-02-28T12:36:31.884Z,10.21
2017-02-28T12:37:33.133Z,10.21
2017-02-28T12:38:34.389Z,10.22
2017-02-28T12:39:35.646Z,10.17
2017-02-28T12:40:36.892Z,10.17
2017-02-28T12:41:38.179Z,10.14
2017-02-28T12:42:39.414Z,10.03
2017-02-28T12:43:40.686Z,9.93
2017-02-28T12:44:42.042Z,9.81
2017-02-28T12:45:43.284Z,10.06
2017-02-28T12:46:44.529Z,10
2017-02-28T12:47:45.764Z,9.97
2017-02-28T12:48:47.153Z,10
2017-02-28T12:49:48.404Z,9.97
2017-02-28T12:50:49.679Z,10.01
2017-02-28T12:51:50.916Z,10.06
2017-02-28T12:52:52.161Z,9.93
2017-02-28T12:53:53.399Z,9.97
2017-02-28T12:54:54.645Z,9.93
2017-02-28T12:55:55.993Z,9.99
2017-02-28T12:56:57.228Z,10.03
2017-02-28T12:57:58.464Z,10.07
2017-02-28T12:58:59.704Z,9.96
2017-02-28T13:00:00.944Z,9.99
2017-02-28T13:01:02.187Z,10.07
2017-02-28T13:02:03.532Z,10
2017-02-28T13:03:04.819Z,10.1
2017-02-28T13:04:06.059Z,10.15
2017-02-28T13:05:07.333Z,10.19
2017-02-28T13:06:08.580Z,10.09
2017-02-28T13:07:09.857Z,9.94
2017-02-28T13:08:11.136Z,10
2017-02-28T13:09:12.416Z,9.99
2017-02-28T13:10:13.672Z,9.88
2017-02-28T13:11:14.894Z,9.89
2017-02-28T13:12:16.162Z,9.93
2017-02-28T13:13:17.429Z,10.03
2017-02-28T13:14:18.667Z,9.99
2017-02-28T13:15:19.893Z,9.96
2017-02-28T13:16:21.132Z,9.96
2017-02-28T13:17:22.418Z,10.04
2017-02-28T13:18:23.646Z,10.1
2017-02-28T13:19:24.881Z,10.03
2017-02-28T13:20:26.149Z,9.94
2017-02-28T13:21:27.391Z,10
2017-02-28T13:22:28.672Z,10
2017-02-28T13:23:29.936Z,9.96
2017-02-28T13:24:31.172Z,10.04
2017-02-28T13:25:32.421Z,9.96
2017-02-28T13:26:33.794Z,9.79
2017-02-28T13:27:35.029Z,9.82
2017-02-28T13:28:36.269Z,9.85
2017-02-28T13:29:37.487Z,9.86
2017-02-28T13:30:38.736Z,9.89
2017-02-28T13:31:39.981Z,9.85
2017-02-28T13:32:41.274Z,9.88
2017-02-28T13:33:42.555Z,9.99
2017-02-28T13:34:43.817Z,10.01
2017-02-28T13:35:45.036Z,10.04